Time;durP1;ratioP1;P1;durP2;ratioP2;P2;SDS_P1;SDS_P2;PMS_P1;PMS_P2;Temp;Humidity;BMP_temperature;BMP_pressure;BME280_temperature;BME280_humidity;BME280_pressure;Samples;Min_cycle;Max_cycle;Signal;HPM_P1;HPM_P2
2023/04/01 00:01:26;;;;;;;;;1.50;1.00;;;;;;;;5049927;28;9901;-90
2023/04/01 00:03:53;;;;;;;;;0.00;0.00;;;;;;;;5051107;28;10036;-90
2023/04/01 00:06:23;;;;;;;;;0.50;0.00;;;;;;;;5050940;28;10151;-93
2023/04/01 00:08:50;;;;;;;;;0.50;0.50;;;;;;;;5051890;28;9877;-93
2023/04/01 00:11:18;;;;;;;;;1.50;0.00;;;;;;;;5043103;28;10012;-93
2023/04/01 00:13:45;;;;;;;;;1.00;0.00;;;;;;;;5054548;28;9915;-95
2023/04/01 00:16:12;;;;;;;;;0.00;0.00;;;;;;;;5054927;28;9918;-96
2023/04/01 00:18:40;;;;;;;;;0.50;0.50;;;;;;;;5056998;28;10158;-89
2023/04/01 00:21:07;;;;;;;;;0.00;0.00;;;;;;;;5056551;28;10231;-90
2023/04/01 00:23:37;;;;;;;;;1.00;1.00;;;;;;;;5055395;28;10022;-89
2023/04/01 00:26:05;;;;;;;;;0.75;0.75;;;;;;;;5050979;28;9973;-89
2023/04/01 00:28:32;;;;;;;;;1.50;0.00;;;;;;;;5040567;28;10041;-89
2023/04/01 00:30:59;;;;;;;;;2.50;0.00;;;;;;;;5042667;28;9979;-85
2023/04/01 00:33:27;;;;;;;;;0.75;0.75;;;;;;;;5042895;28;10938;-92
2023/04/01 00:35:54;;;;;;;;;0.75;0.50;;;;;;;;5058118;28;10207;-95
2023/04/01 00:38:22;;;;;;;;;2.50;1.00;;;;;;;;5058903;28;10152;-94
2023/04/01 00:40:51;;;;;;;;;2.25;0.00;;;;;;;;5057506;28;10297;-89
2023/04/01 00:43:20;;;;;;;;;0.00;0.00;;;;;;;;5057289;28;10081;-92
2023/04/01 00:45:49;;;;;;;;;0.00;0.00;;;;;;;;5056323;28;10093;-90
2023/04/01 00:48:20;;;;;;;;;0.00;0.00;;;;;;;;5056407;28;10287;-84
2023/04/01 00:50:54;;;;;;;;;0.00;0.00;;;;;;;;5053809;28;10171;-84
2023/04/01 00:53:23;;;;;;;;;0.00;0.00;;;;;;;;5056085;28;10170;-90
2023/04/01 00:55:57;;;;;;;;;2.00;1.00;;;;;;;;5052458;28;10083;-87
2023/04/01 00:58:25;;;;;;;;;1.00;1.00;;;;;;;;5047484;28;10243;-87
2023/04/01 01:00:53;;;;;;;;;0.00;0.00;;;;;;;;5051315;28;10295;-87
2023/04/01 01:03:21;;;;;;;;;0.50;0.00;;;;;;;;5051791;28;10277;-90
2023/04/01 01:06:10;;;;;;;;;0.75;0.75;;;;;;;;5051038;28;10342;-86
2023/04/01 01:08:50;;;;;;;;;0.25;0.25;;;;;;;;5049245;28;10436;-93
2023/04/01 01:11:24;;;;;;;;;2.00;0.00;;;;;;;;5050015;28;10174;-95
2023/04/01 01:13:57;;;;;;;;;2.00;0.00;;;;;;;;5047653;28;10350;-95
2023/04/01 01:16:29;;;;;;;;;0.00;0.00;;;;;;;;5058083;28;10246;-90
2023/04/01 01:19:02;;;;;;;;;0.25;0.25;;;;;;;;5058730;28;10432;-90
2023/04/01 01:21:46;;;;;;;;;1.00;1.00;;;;;;;;5062740;28;10313;-85
2023/04/01 01:24:47;;;;;;;;;0.50;0.00;;;;;;;;5056239;28;10215;-94
2023/04/01 01:27:19;;;;;;;;;3.00;0.25;;;;;;;;5057102;28;10159;-89
2023/04/01 01:30:16;;;;;;;;;3.50;1.00;;;;;;;;5061557;28;10233;-86
2023/04/01 01:35:47;;;;;;;;;1.00;1.00;;;;;;;;5060562;28;11048;-86
2023/04/01 01:38:16;;;;;;;;;0.00;0.00;;;;;;;;5064738;28;10319;-94
2023/04/01 01:40:46;;;;;;;;;0.00;0.00;;;;;;;;5050027;28;10284;-94
2023/04/01 01:43:17;;;;;;;;;0.00;0.00;;;;;;;;5053186;28;10205;-89
2023/04/01 01:45:49;;;;;;;;;1.00;1.00;;;;;;;;5050432;28;10170;-93
2023/04/01 01:48:17;;;;;;;;;2.00;0.00;;;;;;;;5054615;28;10173;-89
2023/04/01 01:50:46;;;;;;;;;1.00;1.00;;;;;;;;5055072;28;10349;-91
2023/04/01 01:53:14;;;;;;;;;1.00;0.00;;;;;;;;5052338;28;10247;-95
2023/04/01 01:55:45;;;;;;;;;0.00;0.00;;;;;;;;5053203;28;10264;-88
2023/04/01 01:58:21;;;;;;;;;0.00;0.00;;;;;;;;5069749;28;10244;-89
2023/04/01 02:00:58;;;;;;;;;0.00;0.00;;;;;;;;5070931;28;10138;-89
2023/04/01 02:03:27;;;;;;;;;0.00;0.00;;;;;;;;5072783;28;10231;-91
2023/04/01 02:06:02;;;;;;;;;0.00;0.00;;;;;;;;5069281;28;10226;-96
2023/04/01 02:08:33;;;;;;;;;0.00;0.00;;;;;;;;5075546;28;10171;-84
2023/04/01 02:11:08;;;;;;;;;0.00;0.00;;;;;;;;5075600;28;10165;-84
2023/04/01 02:13:45;;;;;;;;;2.00;0.00;;;;;;;;5068725;28;10250;-85
2023/04/01 02:16:20;;;;;;;;;0.00;0.00;;;;;;;;5071987;28;10222;-84
2023/04/01 02:18:50;;;;;;;;;0.00;0.00;;;;;;;;5069794;28;10224;-85
2023/04/01 02:24:09;;;;;;;;;1.00;0.00;;;;;;;;5058443;28;10259;-85
2023/04/01 02:26:36;;;;;;;;;0.00;0.00;;;;;;;;5062846;28;10206;-85
2023/04/01 02:29:05;;;;;;;;;1.75;1.00;;;;;;;;5057772;28;10295;-85
2023/04/01 02:31:37;;;;;;;;;0.00;0.00;;;;;;;;5066977;28;10292;-84
2023/04/01 02:34:05;;;;;;;;;0.00;0.00;;;;;;;;5056602;28;10316;-89
2023/04/01 02:36:36;;;;;;;;;0.00;0.00;;;;;;;;5061599;28;10421;-84
2023/04/01 02:39:08;;;;;;;;;1.50;0.00;;;;;;;;5061883;28;10961;-83
2023/04/01 02:41:41;;;;;;;;;0.00;0.00;;;;;;;;5063628;28;10226;-90
2023/04/01 02:44:23;;;;;;;;;1.00;0.00;;;;;;;;5064942;28;10313;-83
2023/04/01 02:46:57;;;;;;;;;0.50;0.50;;;;;;;;5064556;28;10259;-82
2023/04/01 02:49:27;;;;;;;;;0.00;0.00;;;;;;;;5047870;28;10405;-83
2023/04/01 02:51:56;;;;;;;;;0.00;0.00;;;;;;;;5060040;28;10388;-92
2023/04/01 02:54:26;;;;;;;;;0.00;0.00;;;;;;;;5054368;28;10273;-90
2023/04/01 02:56:53;;;;;;;;;0.00;0.00;;;;;;;;5052011;28;10353;-87
2023/04/01 02:59:20;;;;;;;;;0.00;0.00;;;;;;;;5051334;28;10337;-85
2023/04/01 03:01:47;;;;;;;;;3.00;0.00;;;;;;;;5050267;28;10177;-90
2023/04/01 03:04:18;;;;;;;;;0.00;0.00;;;;;;;;5051571;28;11109;-85
2023/04/01 03:06:46;;;;;;;;;0.00;0.00;;;;;;;;5057443;28;10313;-92
2023/04/01 03:09:15;;;;;;;;;0.00;0.00;;;;;;;;5054768;28;10330;-89
2023/04/01 03:11:44;;;;;;;;;2.00;0.00;;;;;;;;5060117;28;10425;-89
2023/04/01 03:14:11;;;;;;;;;0.25;0.00;;;;;;;;5059708;28;10527;-93
2023/04/01 03:16:39;;;;;;;;;0.75;0.00;;;;;;;;5059337;28;10210;-93
2023/04/01 03:19:06;;;;;;;;;0.00;0.00;;;;;;;;5055730;28;10222;-86
2023/04/01 03:21:33;;;;;;;;;0.00;0.00;;;;;;;;5055641;28;10232;-92
2023/04/01 03:24:00;;;;;;;;;0.00;0.00;;;;;;;;5052143;28;10397;-86
2023/04/01 03:26:29;;;;;;;;;0.00;0.00;;;;;;;;5052414;28;10319;-90
2023/04/01 03:28:57;;;;;;;;;0.75;0.00;;;;;;;;5051276;28;10308;-93
2023/04/01 03:31:24;;;;;;;;;0.00;0.00;;;;;;;;5051320;28;10371;-91
2023/04/01 03:33:51;;;;;;;;;0.00;0.00;;;;;;;;5051982;28;10326;-87
2023/04/01 03:36:19;;;;;;;;;0.00;0.00;;;;;;;;5051394;28;10154;-89
2023/04/01 03:38:46;;;;;;;;;1.00;0.00;;;;;;;;5053321;28;10310;-90
2023/04/01 03:41:14;;;;;;;;;0.00;0.00;;;;;;;;5055037;28;10306;-93
2023/04/01 03:43:43;;;;;;;;;0.00;0.00;;;;;;;;5057196;28;10128;-91
2023/04/01 03:46:11;;;;;;;;;0.00;0.00;;;;;;;;5057236;28;10273;-91
2023/04/01 03:48:38;;;;;;;;;0.00;0.00;;;;;;;;5054036;28;10217;-93
2023/04/01 03:51:08;;;;;;;;;0.00;0.00;;;;;;;;5056970;28;10236;-86
2023/04/01 03:53:36;;;;;;;;;2.00;0.00;;;;;;;;5052567;28;10143;-91
2023/04/01 03:56:06;;;;;;;;;3.00;0.50;;;;;;;;5056811;28;10102;-96
2023/04/01 03:58:33;;;;;;;;;0.75;0.50;;;;;;;;5052469;28;10201;-92
2023/04/01 04:01:01;;;;;;;;;0.00;0.00;;;;;;;;5054766;28;10203;-92
2023/04/01 04:03:29;;;;;;;;;1.00;0.00;;;;;;;;5053894;28;10027;-94
2023/04/01 04:05:59;;;;;;;;;0.00;0.00;;;;;;;;5060559;28;10087;-95
2023/04/01 04:08:27;;;;;;;;;0.00;0.00;;;;;;;;5048381;28;10005;-85
2023/04/01 04:10:56;;;;;;;;;0.00;0.00;;;;;;;;5059958;28;10091;-94
2023/04/01 04:13:24;;;;;;;;;0.00;0.00;;;;;;;;5059736;28;10939;-86
2023/04/01 04:15:51;;;;;;;;;0.50;0.00;;;;;;;;5050831;28;10023;-88
2023/04/01 04:21:01;;;;;;;;;1.00;0.00;;;;;;;;5057862;28;10204;-82
2023/04/01 04:23:29;;;;;;;;;0.00;0.00;;;;;;;;5050552;28;10064;-93
2023/04/01 04:25:59;;;;;;;;;0.00;0.00;;;;;;;;5033959;28;10084;-89
2023/04/01 04:28:27;;;;;;;;;0.00;0.00;;;;;;;;5056041;28;10178;-89
2023/04/01 04:31:01;;;;;;;;;2.75;0.00;;;;;;;;5060581;28;10095;-84
2023/04/01 04:33:30;;;;;;;;;0.00;0.00;;;;;;;;5041111;28;10158;-91
2023/04/01 04:35:58;;;;;;;;;1.00;0.00;;;;;;;;5051669;28;10217;-87
2023/04/01 04:38:26;;;;;;;;;0.00;0.00;;;;;;;;5049473;28;10298;-88
2023/04/01 04:40:53;;;;;;;;;0.00;0.00;;;;;;;;5050763;28;10233;-85
2023/04/01 04:43:21;;;;;;;;;0.00;0.00;;;;;;;;5053330;28;10116;-84
2023/04/01 04:45:48;;;;;;;;;2.00;0.50;;;;;;;;5053112;28;10057;-93
2023/04/01 04:48:18;;;;;;;;;0.00;0.00;;;;;;;;5053482;28;10847;-88
2023/04/01 04:50:47;;;;;;;;;0.00;0.00;;;;;;;;5055768;28;10073;-96
2023/04/01 04:53:16;;;;;;;;;1.50;0.00;;;;;;;;5049429;28;10079;-91
2023/04/01 04:55:47;;;;;;;;;0.00;0.00;;;;;;;;5049558;28;10167;-96
2023/04/01 04:58:14;;;;;;;;;1.00;0.00;;;;;;;;5047117;28;10156;-94
2023/04/01 05:00:42;;;;;;;;;0.50;0.00;;;;;;;;5049038;28;10080;-94
2023/04/01 05:03:10;;;;;;;;;0.00;0.00;;;;;;;;5049112;28;10288;-95
2023/04/01 05:05:37;;;;;;;;;0.00;0.00;;;;;;;;5049063;28;10101;-95
2023/04/01 05:08:06;;;;;;;;;0.25;0.25;;;;;;;;5050650;28;10443;-96
2023/04/01 05:10:34;;;;;;;;;1.00;1.00;;;;;;;;5055137;28;11137;-91
2023/04/01 05:13:04;;;;;;;;;0.00;0.00;;;;;;;;5055953;28;10199;-94
2023/04/01 05:15:31;;;;;;;;;0.00;0.00;;;;;;;;5041865;28;10245;-91
2023/04/01 05:17:58;;;;;;;;;1.00;1.00;;;;;;;;5051708;28;10361;-90
2023/04/01 05:20:26;;;;;;;;;0.00;0.00;;;;;;;;5041506;28;10360;-91
2023/04/01 05:22:57;;;;;;;;;1.25;1.00;;;;;;;;5046356;28;10314;-91
2023/04/01 05:25:26;;;;;;;;;0.00;0.00;;;;;;;;5052186;28;10172;-87
2023/04/01 05:27:53;;;;;;;;;1.00;1.00;;;;;;;;5049343;28;10176;-93
2023/04/01 05:30:20;;;;;;;;;0.00;0.00;;;;;;;;5048982;28;10152;-93
2023/04/01 05:32:48;;;;;;;;;0.00;0.00;;;;;;;;5051631;28;10065;-92
2023/04/01 05:35:15;;;;;;;;;0.00;0.00;;;;;;;;5053463;28;10848;-93
2023/04/01 05:37:42;;;;;;;;;0.00;0.00;;;;;;;;5051294;28;10000;-92
2023/04/01 05:40:11;;;;;;;;;0.00;0.00;;;;;;;;5052352;28;10140;-93
2023/04/01 05:42:39;;;;;;;;;0.00;0.00;;;;;;;;5059563;28;10045;-90
2023/04/01 05:45:08;;;;;;;;;0.25;0.25;;;;;;;;5055769;28;10011;-94
2023/04/01 05:47:36;;;;;;;;;1.25;1.00;;;;;;;;5054106;28;10186;-94
2023/04/01 05:50:03;;;;;;;;;0.00;0.00;;;;;;;;5053768;28;10880;-89
2023/04/01 05:52:30;;;;;;;;;3.00;1.00;;;;;;;;5054705;28;10133;-94
2023/04/01 05:54:59;;;;;;;;;0.50;0.50;;;;;;;;5056800;28;10247;-91
2023/04/01 05:57:26;;;;;;;;;1.75;1.75;;;;;;;;5056808;28;10245;-92
2023/04/01 05:59:54;;;;;;;;;0.25;0.25;;;;;;;;5059693;28;10203;-96
2023/04/01 06:02:22;;;;;;;;;1.50;1.00;;;;;;;;5060787;28;10130;-90
2023/04/01 06:04:49;;;;;;;;;0.75;0.75;;;;;;;;5053144;28;10309;-89
2023/04/01 06:07:17;;;;;;;;;3.50;2.50;;;;;;;;5051532;28;10242;-75
2023/04/01 06:09:45;;;;;;;;;3.00;1.50;;;;;;;;5050863;28;10170;-76
2023/04/01 06:12:42;;;;;;;;;1.00;1.00;;;;;;;;5047573;28;10333;-80
2023/04/01 06:15:21;;;;;;;;;3.50;2.00;;;;;;;;5047115;28;10180;-78
2023/04/01 06:18:03;;;;;;;;;2.00;2.00;;;;;;;;5045778;28;11218;-75
2023/04/01 06:20:36;;;;;;;;;1.75;1.75;;;;;;;;5050912;28;10136;-77
2023/04/01 06:23:21;;;;;;;;;3.00;1.25;;;;;;;;5050188;28;10170;-77
2023/04/01 06:26:02;;;;;;;;;4.00;2.00;;;;;;;;5050205;28;10098;-78
2023/04/01 06:28:50;;;;;;;;;2.00;2.00;;;;;;;;5050505;28;10341;-73
2023/04/01 06:31:39;;;;;;;;;3.00;3.00;;;;;;;;5047042;28;10178;-74
2023/04/01 06:34:26;;;;;;;;;4.25;2.75;;;;;;;;5046180;28;10351;-75
2023/04/01 06:37:18;;;;;;;;;5.00;4.00;;;;;;;;5035266;28;10418;-74
2023/04/01 06:40:06;;;;;;;;;4.50;3.00;;;;;;;;5048476;28;10335;-71
2023/04/01 06:42:51;;;;;;;;;2.75;2.75;;;;;;;;5048951;28;10268;-76
2023/04/01 06:45:30;;;;;;;;;3.25;3.25;;;;;;;;5050600;28;10378;-73
2023/04/01 06:48:10;;;;;;;;;3.00;3.00;;;;;;;;5049997;28;10400;-75
2023/04/01 06:50:45;;;;;;;;;5.50;3.00;;;;;;;;5048825;28;10332;-71
2023/04/01 06:53:16;;;;;;;;;4.00;3.00;;;;;;;;5049716;28;10172;-72
2023/04/01 06:55:45;;;;;;;;;2.00;1.75;;;;;;;;5049485;28;10360;-79
2023/04/01 06:58:18;;;;;;;;;4.50;3.00;;;;;;;;5049970;28;10300;-77
2023/04/01 07:00:48;;;;;;;;;5.75;2.25;;;;;;;;5049657;28;10321;-76
2023/04/01 07:03:21;;;;;;;;;2.75;2.75;;;;;;;;5048517;28;10258;-74
2023/04/01 07:05:50;;;;;;;;;3.00;2.00;;;;;;;;5049729;28;10250;-75
2023/04/01 07:08:21;;;;;;;;;2.00;2.00;;;;;;;;5049431;28;10227;-75
2023/04/01 07:10:53;;;;;;;;;3.50;2.25;;;;;;;;5049332;28;10178;-76
2023/04/01 07:13:23;;;;;;;;;0.75;0.75;;;;;;;;5048783;28;10246;-75
2023/04/01 07:15:58;;;;;;;;;3.50;2.00;;;;;;;;5049386;28;10237;-75
2023/04/01 07:18:34;;;;;;;;;1.50;1.50;;;;;;;;5038897;28;11086;-77
2023/04/01 07:21:03;;;;;;;;;1.00;1.00;;;;;;;;5048119;28;10245;-74
2023/04/01 07:23:34;;;;;;;;;1.75;1.75;;;;;;;;5049567;28;10355;-74
2023/04/01 07:26:05;;;;;;;;;2.00;2.00;;;;;;;;5049348;28;10158;-74
2023/04/01 07:28:33;;;;;;;;;1.00;1.00;;;;;;;;5049653;28;10191;-74
2023/04/01 07:31:13;;;;;;;;;3.50;0.75;;;;;;;;5048743;28;10054;-74
2023/04/01 07:33:47;;;;;;;;;3.00;3.00;;;;;;;;5048607;28;10090;-74
2023/04/01 07:36:20;;;;;;;;;3.00;3.00;;;;;;;;5038747;28;10259;-74
2023/04/01 07:38:58;;;;;;;;;3.75;2.25;;;;;;;;5047272;28;10921;-74
2023/04/01 07:41:31;;;;;;;;;1.00;1.00;;;;;;;;5049218;28;10161;-74
2023/04/01 07:44:07;;;;;;;;;0.75;0.75;;;;;;;;5048839;28;10097;-75
2023/04/01 07:46:54;;;;;;;;;1.00;1.00;;;;;;;;5049480;28;10177;-73
2023/04/01 07:49:28;;;;;;;;;3.75;2.00;;;;;;;;5041646;28;10236;-74
2023/04/01 07:52:00;;;;;;;;;1.75;1.00;;;;;;;;5044056;28;10170;-74
2023/04/01 07:54:39;;;;;;;;;5.75;1.25;;;;;;;;5044847;28;10326;-74
2023/04/01 07:57:11;;;;;;;;;1.50;1.50;;;;;;;;5048187;28;10282;-74
2023/04/01 07:59:45;;;;;;;;;0.00;0.00;;;;;;;;5048188;28;10110;-74
2023/04/01 08:02:21;;;;;;;;;1.50;1.50;;;;;;;;5042961;28;10028;-74
2023/04/01 08:04:58;;;;;;;;;3.00;1.25;;;;;;;;5043181;28;10222;-74
2023/04/01 08:07:29;;;;;;;;;1.00;1.00;;;;;;;;5048239;28;10245;-73
2023/04/01 08:10:01;;;;;;;;;1.00;1.00;;;;;;;;5045808;28;10167;-77
2023/04/01 08:12:38;;;;;;;;;2.00;2.00;;;;;;;;5047462;28;10151;-75
2023/04/01 08:15:14;;;;;;;;;0.75;0.75;;;;;;;;5048191;28;10251;-74
2023/04/01 08:17:46;;;;;;;;;2.00;2.00;;;;;;;;5047792;28;10013;-73
2023/04/01 08:20:29;;;;;;;;;2.00;2.00;;;;;;;;5048290;28;10928;-76
2023/04/01 08:23:01;;;;;;;;;3.75;1.50;;;;;;;;5045638;28;10103;-76
2023/04/01 08:25:30;;;;;;;;;2.50;2.50;;;;;;;;5047906;28;10995;-74
2023/04/01 08:28:01;;;;;;;;;2.00;2.00;;;;;;;;5047975;28;10185;-76
2023/04/01 08:30:36;;;;;;;;;3.00;3.00;;;;;;;;5047169;28;9966;-75
2023/04/01 08:33:10;;;;;;;;;2.75;1.25;;;;;;;;5039682;28;10109;-75
2023/04/01 08:35:44;;;;;;;;;2.50;1.50;;;;;;;;5048001;28;9993;-76
2023/04/01 08:38:15;;;;;;;;;3.00;1.50;;;;;;;;5048950;28;10024;-76
2023/04/01 08:41:08;;;;;;;;;5.00;1.75;;;;;;;;5044983;28;10120;-76
2023/04/01 08:44:13;;;;;;;;;2.00;2.00;;;;;;;;5045354;28;10171;-75
2023/04/01 08:46:58;;;;;;;;;2.25;2.25;;;;;;;;5046209;28;10199;-78
2023/04/01 08:49:44;;;;;;;;;3.50;1.25;;;;;;;;5047448;28;10111;-74
2023/04/01 08:52:29;;;;;;;;;3.25;3.25;;;;;;;;5040395;28;9946;-78
2023/04/01 08:55:29;;;;;;;;;2.25;2.25;;;;;;;;5046820;28;10200;-77
2023/04/01 08:58:21;;;;;;;;;3.00;3.00;;;;;;;;5037087;28;10125;-73
2023/04/01 09:00:53;;;;;;;;;6.00;4.00;;;;;;;;5037764;28;10172;-78
2023/04/01 09:03:42;;;;;;;;;5.25;3.75;;;;;;;;5047327;28;10096;-74
2023/04/01 09:06:35;;;;;;;;;2.00;2.00;;;;;;;;5046398;28;10043;-73
2023/04/01 09:09:28;;;;;;;;;2.50;2.50;;;;;;;;5048432;28;9941;-75
2023/04/01 09:12:22;;;;;;;;;3.25;3.00;;;;;;;;5032554;28;10089;-78
2023/04/01 09:15:00;;;;;;;;;2.00;2.00;;;;;;;;4984331;28;10232;-76
2023/04/01 09:18:09;;;;;;;;;1.50;1.50;;;;;;;;5047629;28;9862;-71
2023/04/01 09:20:59;;;;;;;;;4.25;3.25;;;;;;;;5040050;28;9950;-75
2023/04/01 09:23:37;;;;;;;;;2.50;2.00;;;;;;;;5047188;28;10827;-75
2023/04/01 09:26:40;;;;;;;;;1.75;1.75;;;;;;;;5047837;28;10189;-74
2023/04/01 09:29:19;;;;;;;;;1.00;1.00;;;;;;;;5047263;28;10033;-75
2023/04/01 09:31:57;;;;;;;;;3.00;1.25;;;;;;;;5047106;28;10063;-75
2023/04/01 09:34:36;;;;;;;;;3.75;1.75;;;;;;;;5047224;28;9956;-71
2023/04/01 09:37:28;;;;;;;;;4.00;2.00;;;;;;;;5048012;28;9907;-75
2023/04/01 09:40:18;;;;;;;;;1.75;1.75;;;;;;;;5047512;28;9926;-76
2023/04/01 09:42:56;;;;;;;;;2.75;2.75;;;;;;;;5048518;28;9946;-71
2023/04/01 09:45:43;;;;;;;;;4.00;1.25;;;;;;;;5045354;28;9863;-76
2023/04/01 09:48:23;;;;;;;;;1.00;1.00;;;;;;;;5040097;28;9873;-75
2023/04/01 09:51:01;;;;;;;;;2.00;2.00;;;;;;;;5046492;28;9813;-76
2023/04/01 09:53:48;;;;;;;;;2.75;2.75;;;;;;;;5046869;28;9909;-71
2023/04/01 09:56:29;;;;;;;;;3.75;3.75;;;;;;;;5039591;28;9957;-75
2023/04/01 09:59:16;;;;;;;;;1.75;1.75;;;;;;;;5047072;28;9962;-74
2023/04/01 10:02:29;;;;;;;;;2.50;2.50;;;;;;;;5043735;28;9654;-79
2023/04/01 10:05:24;;;;;;;;;2.25;2.25;;;;;;;;5025596;28;9726;-77
2023/04/01 10:08:32;;;;;;;;;3.25;2.50;;;;;;;;5041332;28;9956;-75
2023/04/01 10:11:24;;;;;;;;;3.00;2.50;;;;;;;;5041224;28;9771;-74
2023/04/01 10:14:33;;;;;;;;;2.75;2.75;;;;;;;;5046945;28;9850;-75
2023/04/01 10:17:33;;;;;;;;;1.75;1.75;;;;;;;;5005139;28;9728;-77
2023/04/01 10:20:31;;;;;;;;;3.75;2.50;;;;;;;;5045923;28;9689;-76
2023/04/01 10:23:29;;;;;;;;;3.00;1.00;;;;;;;;5049775;28;9623;-75
2023/04/01 10:26:13;;;;;;;;;4.75;3.00;;;;;;;;5016928;28;9793;-75
2023/04/01 10:29:02;;;;;;;;;2.00;2.00;;;;;;;;5043720;28;9623;-72
2023/04/01 10:31:57;;;;;;;;;2.50;2.50;;;;;;;;5049272;28;9578;-75
2023/04/01 10:35:05;;;;;;;;;1.00;1.00;;;;;;;;5049816;28;10410;-73
2023/04/01 10:38:04;;;;;;;;;2.00;2.00;;;;;;;;5049665;28;9686;-75
2023/04/01 10:40:53;;;;;;;;;0.25;0.25;;;;;;;;5046843;28;9700;-74
2023/04/01 10:43:47;;;;;;;;;1.00;1.00;;;;;;;;5048689;28;9601;-77
2023/04/01 10:46:48;;;;;;;;;2.25;2.25;;;;;;;;5050072;28;9544;-76
2023/04/01 10:49:51;;;;;;;;;3.00;2.25;;;;;;;;5003283;28;9778;-78
2023/04/01 10:52:51;;;;;;;;;0.25;0.25;;;;;;;;5049492;28;9778;-81
2023/04/01 10:55:49;;;;;;;;;1.50;1.50;;;;;;;;5010846;28;10032;-74
2023/04/01 10:58:46;;;;;;;;;2.00;2.00;;;;;;;;5049606;28;9785;-72
2023/04/01 11:01:28;;;;;;;;;2.00;2.00;;;;;;;;5042518;28;9849;-71
2023/04/01 11:04:37;;;;;;;;;1.00;1.00;;;;;;;;5050139;28;9836;-77
2023/04/01 11:07:28;;;;;;;;;1.50;1.25;;;;;;;;4995873;28;9545;-72
2023/04/01 11:10:20;;;;;;;;;4.75;2.00;;;;;;;;5049322;28;9692;-72
2023/04/01 11:13:14;;;;;;;;;2.25;2.25;;;;;;;;5049822;28;9773;-73
2023/04/01 11:16:10;;;;;;;;;2.00;2.00;;;;;;;;5044975;28;9812;-77
2023/04/01 11:18:58;;;;;;;;;4.00;2.50;;;;;;;;5049678;28;9825;-77
2023/04/01 11:21:48;;;;;;;;;1.50;1.50;;;;;;;;5042267;28;9634;-77
2023/04/01 11:25:00;;;;;;;;;2.00;2.00;;;;;;;;5046195;28;9625;-75
2023/04/01 11:28:00;;;;;;;;;1.00;1.00;;;;;;;;5026949;28;9661;-74
2023/04/01 11:30:35;;;;;;;;;2.00;2.00;;;;;;;;5043945;28;9482;-75
2023/04/01 11:33:06;;;;;;;;;2.50;2.00;;;;;;;;5052409;28;9695;-75
2023/04/01 11:35:47;;;;;;;;;1.50;1.50;;;;;;;;5040269;28;9646;-71
2023/04/01 11:38:58;;;;;;;;;2.00;2.00;;;;;;;;5043925;28;9622;-71
2023/04/01 11:41:34;;;;;;;;;3.00;2.00;;;;;;;;5040177;28;9758;-75
2023/04/01 11:44:16;;;;;;;;;2.00;2.00;;;;;;;;5047040;28;9709;-75
2023/04/01 11:46:52;;;;;;;;;2.75;1.25;;;;;;;;5041998;28;10351;-73
2023/04/01 11:49:29;;;;;;;;;2.00;2.00;;;;;;;;5039556;28;9703;-73
2023/04/01 11:52:22;;;;;;;;;1.00;1.00;;;;;;;;5048882;28;9577;-77
2023/04/01 11:55:07;;;;;;;;;1.50;1.50;;;;;;;;5048691;28;9481;-71
2023/04/01 11:57:47;;;;;;;;;1.25;1.25;;;;;;;;5040730;28;9468;-77
2023/04/01 12:00:36;;;;;;;;;2.00;2.00;;;;;;;;5046885;28;10397;-73
2023/04/01 12:03:19;;;;;;;;;3.00;3.00;;;;;;;;5049469;28;9594;-73
2023/04/01 12:05:50;;;;;;;;;2.00;2.00;;;;;;;;5040825;28;9466;-78
2023/04/01 12:08:26;;;;;;;;;1.00;1.00;;;;;;;;5048303;28;9639;-75
2023/04/01 12:10:59;;;;;;;;;2.25;2.25;;;;;;;;5048059;28;9471;-72
2023/04/01 12:13:36;;;;;;;;;2.25;2.25;;;;;;;;5047920;28;9667;-75
2023/04/01 12:16:27;;;;;;;;;5.75;3.00;;;;;;;;5048573;28;9545;-73
2023/04/01 12:18:58;;;;;;;;;2.75;2.75;;;;;;;;5048599;28;9614;-74
2023/04/01 12:21:29;;;;;;;;;2.00;2.00;;;;;;;;5048550;28;10523;-75
2023/04/01 12:24:30;;;;;;;;;1.00;1.00;;;;;;;;5047952;28;9644;-77
2023/04/01 12:27:07;;;;;;;;;1.00;1.00;;;;;;;;5026228;28;9704;-75
2023/04/01 12:29:55;;;;;;;;;2.25;2.25;;;;;;;;5047319;28;9779;-76
2023/04/01 12:32:32;;;;;;;;;1.00;1.00;;;;;;;;5048698;28;9812;-72
2023/04/01 12:35:14;;;;;;;;;0.25;0.25;;;;;;;;5048833;28;9938;-79
2023/04/01 12:37:49;;;;;;;;;1.00;1.00;;;;;;;;5046894;28;9748;-77
2023/04/01 12:40:26;;;;;;;;;1.00;1.00;;;;;;;;5046124;28;9777;-78
2023/04/01 12:43:22;;;;;;;;;0.75;0.75;;;;;;;;5048270;28;9954;-78
2023/04/01 12:45:56;;;;;;;;;0.00;0.00;;;;;;;;5047434;28;9870;-79
2023/04/01 12:48:55;;;;;;;;;0.00;0.00;;;;;;;;5047763;28;9852;-77
2023/04/01 12:51:33;;;;;;;;;1.00;0.00;;;;;;;;5048262;28;9946;-79
2023/04/01 12:54:28;;;;;;;;;0.00;0.00;;;;;;;;5036064;28;10351;-79
2023/04/01 12:57:04;;;;;;;;;3.25;0.00;;;;;;;;5031490;28;9919;-79
2023/04/01 12:59:46;;;;;;;;;0.00;0.00;;;;;;;;5048382;28;10015;-73
2023/04/01 13:02:18;;;;;;;;;0.00;0.00;;;;;;;;5039372;28;9794;-80
2023/04/01 13:05:19;;;;;;;;;0.00;0.00;;;;;;;;5046339;28;9854;-77
2023/04/01 13:08:15;;;;;;;;;0.00;0.00;;;;;;;;5041017;28;9834;-75
2023/04/01 13:10:59;;;;;;;;;0.00;0.00;;;;;;;;5038475;28;9767;-75
2023/04/01 13:14:00;;;;;;;;;0.00;0.00;;;;;;;;5048049;28;9840;-76
2023/04/01 13:16:30;;;;;;;;;0.00;0.00;;;;;;;;5048323;28;10449;-78
2023/04/01 13:19:01;;;;;;;;;0.00;0.00;;;;;;;;5049996;28;9552;-79
2023/04/01 13:21:39;;;;;;;;;0.00;0.00;;;;;;;;5050108;28;9573;-78
2023/04/01 13:24:14;;;;;;;;;1.00;0.00;;;;;;;;5051604;28;9545;-73
2023/04/01 13:26:50;;;;;;;;;0.00;0.00;;;;;;;;5038087;28;9565;-72
2023/04/01 13:29:20;;;;;;;;;0.00;0.00;;;;;;;;5048264;28;9412;-76
2023/04/01 13:32:02;;;;;;;;;0.00;0.00;;;;;;;;5045535;28;9287;-73
2023/04/01 13:34:40;;;;;;;;;0.00;0.00;;;;;;;;5043603;28;9430;-74
2023/04/01 13:37:22;;;;;;;;;0.00;0.00;;;;;;;;5040765;28;9441;-77
2023/04/01 13:40:04;;;;;;;;;0.00;0.00;;;;;;;;5037498;28;9236;-74
2023/04/01 13:42:36;;;;;;;;;0.00;0.00;;;;;;;;5045823;28;9370;-76
2023/04/01 13:45:10;;;;;;;;;0.00;0.00;;;;;;;;5047274;28;10087;-74
2023/04/01 13:48:19;;;;;;;;;0.00;0.00;;;;;;;;5036334;28;9280;-73
2023/04/01 13:50:58;;;;;;;;;0.00;0.00;;;;;;;;5024489;28;9122;-74
2023/04/01 13:53:38;;;;;;;;;0.00;0.00;;;;;;;;5047922;28;9180;-74
2023/04/01 13:56:14;;;;;;;;;0.00;0.00;;;;;;;;5051714;28;9024;-77
2023/04/01 13:58:58;;;;;;;;;0.00;0.00;;;;;;;;5050865;28;9102;-76
2023/04/01 14:01:33;;;;;;;;;0.00;0.00;;;;;;;;5050147;28;9795;-78
2023/04/01 14:04:25;;;;;;;;;0.00;0.00;;;;;;;;5051411;28;9186;-77
2023/04/01 14:07:02;;;;;;;;;0.00;0.00;;;;;;;;5046961;28;9166;-79
2023/04/01 14:10:03;;;;;;;;;0.00;0.00;;;;;;;;5051728;28;9255;-74
2023/04/01 14:12:36;;;;;;;;;0.00;0.00;;;;;;;;5050792;28;9332;-72
2023/04/01 14:15:22;;;;;;;;;1.00;0.00;;;;;;;;5050686;28;10135;-71
2023/04/01 14:18:04;;;;;;;;;0.00;0.00;;;;;;;;5050130;28;9412;-73
2023/04/01 14:20:41;;;;;;;;;0.00;0.00;;;;;;;;5050912;28;9177;-75
2023/04/01 14:23:44;;;;;;;;;0.00;0.00;;;;;;;;5040127;28;9137;-77
2023/04/01 14:26:36;;;;;;;;;0.00;0.00;;;;;;;;5023828;28;9134;-72
2023/04/01 14:29:15;;;;;;;;;0.00;0.00;;;;;;;;5050412;28;9174;-76
2023/04/01 14:31:54;;;;;;;;;0.00;0.00;;;;;;;;5049925;28;9137;-77
2023/04/01 14:34:30;;;;;;;;;1.00;0.00;;;;;;;;5050332;28;9923;-75
2023/04/01 14:37:15;;;;;;;;;1.00;0.00;;;;;;;;5051471;28;9177;-79
2023/04/01 14:40:15;;;;;;;;;0.00;0.00;;;;;;;;5040099;28;9393;-75
2023/04/01 14:43:05;;;;;;;;;0.00;0.00;;;;;;;;5038536;28;9430;-73
2023/04/01 14:45:56;;;;;;;;;0.50;0.00;;;;;;;;5049660;28;9418;-75
2023/04/01 14:48:27;;;;;;;;;1.25;0.00;;;;;;;;5049733;28;9549;-74
2023/04/01 14:50:56;;;;;;;;;1.00;0.00;;;;;;;;5050435;28;9646;-76
2023/04/01 14:53:30;;;;;;;;;0.00;0.00;;;;;;;;5049849;28;9713;-77
2023/04/01 14:55:58;;;;;;;;;1.00;0.00;;;;;;;;5050073;28;9572;-76
2023/04/01 14:58:39;;;;;;;;;0.00;0.00;;;;;;;;5049108;28;9634;-77
2023/04/01 15:01:24;;;;;;;;;0.00;0.00;;;;;;;;5049674;28;9490;-76
2023/04/01 15:03:57;;;;;;;;;0.00;0.00;;;;;;;;5038922;28;9456;-81
2023/04/01 15:06:49;;;;;;;;;1.00;0.00;;;;;;;;5049866;28;9459;-73
2023/04/01 15:09:23;;;;;;;;;1.00;0.00;;;;;;;;5050641;28;9405;-78
2023/04/01 15:11:57;;;;;;;;;1.00;0.00;;;;;;;;5051023;28;9364;-76
2023/04/01 15:14:46;;;;;;;;;1.25;0.50;;;;;;;;5052810;28;9480;-74
2023/04/01 15:17:34;;;;;;;;;0.00;0.00;;;;;;;;5037824;28;9544;-75
2023/04/01 15:20:26;;;;;;;;;0.00;0.00;;;;;;;;5041872;28;10165;-75
2023/04/01 15:23:13;;;;;;;;;1.50;0.00;;;;;;;;5047576;28;9321;-75
2023/04/01 15:25:52;;;;;;;;;0.00;0.00;;;;;;;;5049455;28;9549;-78
2023/04/01 15:28:26;;;;;;;;;1.50;0.00;;;;;;;;5040911;28;10326;-78
2023/04/01 15:31:00;;;;;;;;;0.00;0.00;;;;;;;;5048788;28;9436;-77
2023/04/01 15:33:47;;;;;;;;;0.00;0.00;;;;;;;;5040689;28;9471;-74
2023/04/01 15:36:28;;;;;;;;;1.00;0.00;;;;;;;;5045924;28;9370;-74
2023/04/01 15:39:01;;;;;;;;;0.00;0.00;;;;;;;;5047512;28;9388;-74
2023/04/01 15:41:37;;;;;;;;;0.00;0.00;;;;;;;;5048898;28;9402;-75
2023/04/01 15:44:04;;;;;;;;;0.00;0.00;;;;;;;;5048644;28;9557;-75
2023/04/01 15:46:47;;;;;;;;;2.00;0.00;;;;;;;;5037597;28;9623;-76
2023/04/01 15:49:25;;;;;;;;;0.00;0.00;;;;;;;;5035337;28;9541;-73
2023/04/01 15:52:03;;;;;;;;;0.00;0.00;;;;;;;;5048859;28;9401;-75
2023/04/01 15:54:57;;;;;;;;;0.75;0.00;;;;;;;;5049152;28;9496;-74
2023/04/01 15:57:32;;;;;;;;;0.00;0.00;;;;;;;;5037253;28;10443;-75
2023/04/01 16:00:35;;;;;;;;;0.00;0.00;;;;;;;;5048647;28;9864;-75